Time;durP1;ratioP1;P1;durP2;ratioP2;P2;SDS_P1;SDS_P2;PMS_P1;PMS_P2;Temp;Humidity;BMP_temperature;BMP_pressure;BME280_temperature;BME280_humidity;BME280_pressure;Samples;Min_cycle;Max_cycle;Signal;HPM_P1;HPM_P2
2023/09/02 00:00:05;;;;;;;8.40;4.82;;;;;;;19.67;67.71;100257.16;4974493;28;98690;-78
2023/09/02 00:02:38;;;;;;;5.05;3.72;;;;;;;19.74;67.45;100272.66;4971209;28;97794;-78
2023/09/02 00:05:05;;;;;;;4.93;3.38;;;;;;;19.73;67.55;100268.31;4974867;28;96673;-78
2023/09/02 00:07:30;;;;;;;4.50;3.53;;;;;;;19.75;67.58;100263.72;4972733;28;96941;-78
2023/09/02 00:09:56;;;;;;;3.92;3.20;;;;;;;19.70;67.67;100265.88;4969522;28;98647;-79
2023/09/02 00:12:21;;;;;;;6.00;3.35;;;;;;;19.70;67.63;100273.88;4974121;28;97877;-78
2023/09/02 00:14:47;;;;;;;8.45;3.78;;;;;;;19.73;67.48;100263.00;4974878;28;97254;-78
2023/09/02 00:17:13;;;;;;;7.82;3.35;;;;;;;19.71;67.55;100264.91;4974011;28;97002;-78
2023/09/02 00:19:40;;;;;;;6.10;3.53;;;;;;;19.70;67.56;100272.06;4974168;28;98658;-78
2023/09/02 00:22:06;;;;;;;6.30;3.63;;;;;;;19.66;67.73;100263.44;4973505;28;98784;-78
2023/09/02 00:24:31;;;;;;;8.10;3.88;;;;;;;19.71;67.57;100271.06;4974314;28;96702;-78
2023/09/02 00:26:57;;;;;;;6.57;2.95;;;;;;;19.70;67.60;100271.22;4973869;28;97286;-78
2023/09/02 00:29:22;;;;;;;5.20;2.83;;;;;;;19.71;67.73;100273.75;4974536;28;98679;-78
2023/09/02 00:31:48;;;;;;;4.38;3.08;;;;;;;19.69;67.93;100275.66;4973466;28;98811;-78
2023/09/02 00:34:13;;;;;;;6.22;3.22;;;;;;;19.68;67.93;100269.47;4974385;28;96863;-78
2023/09/02 00:36:39;;;;;;;6.90;3.35;;;;;;;19.71;68.13;100276.41;4973096;28;97271;-78
2023/09/02 00:39:05;;;;;;;4.97;3.53;;;;;;;19.70;68.16;100288.03;4974068;28;99113;-78
2023/09/02 00:41:47;;;;;;;10.07;3.75;;;;;;;19.70;68.30;100281.84;4973330;28;97331;-79
2023/09/02 00:44:12;;;;;;;6.63;3.70;;;;;;;19.72;68.21;100282.56;4972677;28;97056;-79
2023/09/02 00:46:38;;;;;;;7.70;4.50;;;;;;;19.60;68.41;100274.47;4942583;28;96845;-79
2023/09/02 00:49:04;;;;;;;7.57;5.22;;;;;;;19.64;68.64;100281.31;4981721;28;98612;-79
2023/09/02 00:51:29;;;;;;;9.60;5.20;;;;;;;19.61;68.72;100278.88;4973266;28;98466;-79
2023/09/02 00:53:55;;;;;;;10.45;5.28;;;;;;;19.64;68.63;100275.97;4974404;28;97719;-79
2023/09/02 00:56:20;;;;;;;8.45;4.78;;;;;;;19.65;68.54;100284.84;4973945;28;97353;-80
2023/09/02 00:58:46;;;;;;;14.57;5.30;;;;;;;19.65;68.75;100282.19;4972589;28;99013;-79
2023/09/02 01:01:12;;;;;;;7.22;4.45;;;;;;;19.63;68.77;100287.59;4972960;28;98567;-79
2023/09/02 01:03:39;;;;;;;10.73;4.85;;;;;;;19.66;68.69;100291.84;4973837;28;97211;-79
2023/09/02 01:06:05;;;;;;;8.13;4.55;;;;;;;19.64;69.00;100291.94;4972560;28;96864;-79
2023/09/02 01:08:31;;;;;;;5.82;4.65;;;;;;;19.58;69.18;100284.41;4971548;28;100436;-80
2023/09/02 01:11:00;;;;;;;8.95;5.13;;;;;;;19.59;69.20;100290.56;4972516;28;98351;-79
2023/09/02 01:13:27;;;;;;;6.85;4.53;;;;;;;19.60;69.60;100301.09;4973360;28;97249;-79
2023/09/02 01:15:55;;;;;;;11.52;4.20;;;;;;;19.58;69.59;100299.53;4973329;28;97310;-79
2023/09/02 01:18:24;;;;;;;6.43;4.20;;;;;;;19.60;69.72;100302.91;4973487;28;99106;-79
2023/09/02 01:20:56;;;;;;;6.10;4.20;;;;;;;19.59;69.54;100306.56;4972754;28;98332;-79
2023/09/02 01:23:24;;;;;;;;;;;;;;;19.56;69.57;100307.63;4974570;28;97595;-80
2023/09/02 01:26:04;;;;;;;8.80;3.92;;;;;;;19.53;69.74;100305.19;4973395;28;97583;-79
2023/09/02 01:28:32;;;;;;;13.52;4.63;;;;;;;19.57;69.91;100303.13;4973381;28;99151;-79
2023/09/02 01:30:59;;;;;;;7.57;4.28;;;;;;;19.55;69.75;100305.09;4955213;28;100638;-79
2023/09/02 01:33:26;;;;;;;6.68;4.45;;;;;;;19.53;69.85;100301.66;4955919;28;97538;-79
2023/09/02 01:35:52;;;;;;;7.38;4.47;;;;;;;19.52;69.98;100300.81;4973213;28;96871;-79
2023/09/02 01:38:21;;;;;;;8.02;3.90;;;;;;;19.51;70.10;100304.44;4971927;28;98585;-78
2023/09/02 01:40:49;;;;;;;9.85;4.05;;;;;;;19.54;70.05;100306.03;4971152;28;99333;-78
2023/09/02 01:43:20;;;;;;;7.28;3.90;;;;;;;19.55;69.87;100315.72;4972833;28;96831;-78
2023/09/02 01:45:46;;;;;;;9.57;4.20;;;;;;;19.50;69.88;100304.56;4971888;28;96788;-78
2023/09/02 01:48:13;;;;;;;4.57;3.83;;;;;;;19.51;70.16;100311.56;4968217;28;98727;-79
2023/09/02 01:50:40;;;;;;;7.75;3.83;;;;;;;19.53;70.10;100312.31;4971886;28;98424;-78
2023/09/02 01:53:08;;;;;;;7.97;4.20;;;;;;;19.52;69.85;100327.44;4971996;28;96805;-78
2023/09/02 01:55:34;;;;;;;9.68;4.78;;;;;;;19.50;69.91;100316.03;4973172;28;96910;-78
2023/09/02 01:58:01;;;;;;;6.97;4.20;;;;;;;19.46;69.84;100319.91;4954889;28;100816;-79
2023/09/02 02:00:26;;;;;;;8.65;5.10;;;;;;;19.49;69.93;100322.34;4955136;28;100101;-78
2023/09/02 02:02:54;;;;;;;6.13;4.72;;;;;;;19.43;70.00;100317.44;4971370;28;97294;-78
2023/09/02 02:05:24;;;;;;;6.05;4.65;;;;;;;19.41;69.83;100322.03;4973258;28;97110;-78
2023/09/02 02:08:03;;;;;;;7.57;4.47;;;;;;;19.44;69.66;100332.47;4973510;28;98089;-78
2023/09/02 02:10:29;;;;;;;6.45;4.40;;;;;;;19.42;69.71;100326.38;4951216;28;100790;-78
2023/09/02 02:12:55;;;;;;;8.88;4.68;;;;;;;19.39;70.16;100326.59;4954994;28;97088;-78
2023/09/02 02:15:20;;;;;;;7.13;4.68;;;;;;;19.39;70.29;100330.09;4973206;28;96865;-78
2023/09/02 02:17:46;;;;;;;4.60;3.90;;;;;;;19.33;70.47;100330.53;4972558;28;97394;-78
2023/09/02 02:20:12;;;;;;;5.88;4.35;;;;;;;19.25;70.60;100321.41;4972605;28;98852;-78
2023/09/02 02:22:37;;;;;;;8.90;4.68;;;;;;;19.24;70.61;100320.56;4970536;28;97267;-79
2023/09/02 02:25:04;;;;;;;6.53;4.38;;;;;;;19.28;70.31;100327.34;4972838;28;96930;-78
2023/09/02 02:27:29;;;;;;;7.80;4.63;;;;;;;19.21;70.73;100316.28;4971636;28;98975;-78
2023/09/02 02:29:55;;;;;;;6.13;4.32;;;;;;;19.18;70.64;100327.16;4971311;28;98412;-78
2023/09/02 02:32:21;;;;;;;5.85;5.20;;;;;;;19.11;70.88;100333.00;4972140;28;97110;-78
2023/09/02 02:34:47;;;;;;;9.63;4.65;;;;;;;19.08;71.34;100328.78;4971507;28;96915;-78
2023/09/02 02:37:13;;;;;;;5.95;4.57;;;;;;;19.09;71.07;100332.28;4972124;28;98589;-79
2023/09/02 02:39:38;;;;;;;7.60;5.38;;;;;;;19.12;70.95;100338.22;4973033;28;98268;-78
2023/09/02 02:42:04;;;;;;;8.18;4.88;;;;;;;19.13;71.15;100345.25;4971418;28;96734;-78
2023/09/02 02:44:29;;;;;;;6.82;4.95;;;;;;;19.13;71.12;100345.25;4972778;28;96761;-78
2023/09/02 02:46:55;;;;;;;9.45;5.05;;;;;;;19.16;70.96;100344.19;4971124;28;99179;-78
2023/09/02 02:49:20;;;;;;;5.60;4.03;;;;;;;19.08;71.32;100334.09;4972331;28;98562;-78
2023/09/02 02:51:46;;;;;;;6.82;4.93;;;;;;;19.06;71.39;100346.63;4971253;28;98196;-78
2023/09/02 02:54:12;;;;;;;7.32;5.32;;;;;;;19.08;71.64;100349.16;4970500;28;97037;-78
2023/09/02 02:56:38;;;;;;;6.32;4.43;;;;;;;18.94;71.92;100347.47;4968735;28;100845;-78
2023/09/02 02:59:04;;;;;;;7.10;5.03;;;;;;;19.04;71.64;100345.88;4969824;28;100160;-78
2023/09/02 03:01:31;;;;;;;10.48;5.45;;;;;;;19.03;71.63;100330.03;4975036;28;97507;-78
2023/09/02 03:03:58;;;;;;;6.57;5.68;;;;;;;19.04;71.54;100337.91;4971513;28;97015;-78
2023/09/02 03:06:23;;;;;;;6.53;5.00;;;;;;;19.03;71.54;100340.69;4971485;28;98660;-78
2023/09/02 03:08:49;;;;;;;10.75;5.22;;;;;;;19.08;71.57;100347.38;4953968;28;100028;-79
2023/09/02 03:11:15;;;;;;;7.22;4.32;;;;;;;19.11;71.50;100356.94;4970693;28;96797;-77
2023/09/02 03:13:41;;;;;;;8.27;5.40;;;;;;;19.11;71.64;100354.28;4971066;28;96962;-78
2023/09/02 03:16:15;;;;;;;10.57;5.40;;;;;;;19.11;71.60;100348.97;4970284;28;100525;-78
2023/09/02 03:18:41;;;;;;;9.70;5.43;;;;;;;19.13;71.62;100355.03;4971643;28;98295;-78
2023/09/02 03:21:07;;;;;;;8.90;5.55;;;;;;;19.07;71.74;100350.97;4978030;28;97298;-78
2023/09/02 03:23:35;;;;;;;8.20;5.20;;;;;;;19.06;71.74;100364.41;4971026;28;97159;-78
2023/09/02 03:26:08;;;;;;;8.35;4.93;;;;;;;19.08;71.82;100354.50;4970337;28;97939;-78
2023/09/02 03:28:34;;;;;;;10.90;5.45;;;;;;;19.09;71.91;100351.75;4965159;28;100113;-78
2023/09/02 03:31:07;;;;;;;7.53;5.38;;;;;;;19.08;71.80;100357.16;4971678;28;96911;-78
2023/09/02 03:33:33;;;;;;;7.20;5.03;;;;;;;18.96;71.67;100337.56;4970740;28;96989;-78
2023/09/02 03:35:59;;;;;;;6.70;5.53;;;;;;;19.06;71.55;100356.44;4970800;28;99149;-78
2023/09/02 03:38:26;;;;;;;7.57;5.30;;;;;;;19.08;71.41;100359.81;4970422;28;97700;-78
2023/09/02 03:40:52;;;;;;;8.23;5.75;;;;;;;19.04;71.40;100361.00;4970842;28;97219;-78
2023/09/02 03:43:17;;;;;;;8.10;5.45;;;;;;;18.91;71.83;100356.53;4970746;28;97031;-78
2023/09/02 03:45:43;;;;;;;6.97;4.85;;;;;;;18.79;72.31;100367.97;4971157;28;97771;-78
2023/09/02 03:48:08;;;;;;;6.22;4.97;;;;;;;18.72;72.34;100364.84;4971540;28;98787;-77
2023/09/02 03:51:06;;;;;;;7.38;5.50;;;;;;;18.82;72.03;100373.09;4969689;28;96817;-78
2023/09/02 03:53:34;;;;;;;5.63;4.75;;;;;;;18.83;71.77;100371.28;4967602;28;98433;-78
2023/09/02 03:56:00;;;;;;;6.20;4.95;;;;;;;18.86;71.69;100379.91;4969823;28;100413;-78
2023/09/02 03:58:29;;;;;;;10.02;4.80;;;;;;;18.89;71.64;100378.84;4969930;28;100359;-78
2023/09/02 04:00:55;;;;;;;8.32;5.40;;;;;;;18.86;71.81;100376.41;4968135;28;96786;-78
2023/09/02 04:03:21;;;;;;;6.68;4.57;;;;;;;18.89;71.93;100378.84;4970612;28;96840;-78
2023/09/02 04:05:48;;;;;;;8.82;4.95;;;;;;;18.93;71.79;100383.00;4969057;28;100544;-78
2023/09/02 04:08:18;;;;;;;8.50;5.25;;;;;;;18.94;71.86;100390.03;4971413;28;98435;-78
2023/09/02 04:10:44;;;;;;;8.67;5.57;;;;;;;18.89;71.90;100389.50;4970492;28;97367;-78
2023/09/02 04:13:11;;;;;;;12.35;4.90;;;;;;;18.84;71.99;100384.47;4970488;28;96913;-78
2023/09/02 04:15:36;;;;;;;7.93;5.13;;;;;;;18.83;71.87;100380.13;4970784;28;98881;-78
2023/09/02 04:18:03;;;;;;;6.68;4.85;;;;;;;18.88;71.93;100385.09;4970315;28;98300;-78
2023/09/02 04:20:28;;;;;;;7.45;4.75;;;;;;;18.90;71.78;100393.84;4971322;28;96799;-78
2023/09/02 04:22:54;;;;;;;6.57;4.68;;;;;;;18.85;71.90;100395.94;4953458;28;97177;-78
2023/09/02 04:25:20;;;;;;;10.75;4.30;;;;;;;18.87;71.53;100392.25;4968802;28;100308;-78
2023/09/02 04:27:46;;;;;;;5.97;4.55;;;;;;;18.92;71.51;100408.75;4969446;28;98887;-78
2023/09/02 04:30:12;;;;;;;6.25;4.38;;;;;;;18.92;71.46;100410.56;4971319;28;96609;-78
2023/09/02 04:32:38;;;;;;;8.10;4.93;;;;;;;18.94;71.41;100408.66;4970658;28;96816;-78
2023/09/02 04:35:05;;;;;;;7.70;5.40;;;;;;;18.97;71.37;100419.09;4969545;28;100805;-78
2023/09/02 04:37:30;;;;;;;10.77;5.00;;;;;;;18.98;71.42;100426.94;4973186;28;98632;-78
2023/09/02 04:39:57;;;;;;;7.32;4.97;;;;;;;18.98;71.36;100418.97;4974478;28;96743;-78
2023/09/02 04:42:22;;;;;;;11.55;5.78;;;;;;;18.94;71.31;100413.97;4973804;28;97259;-78
2023/09/02 04:44:50;;;;;;;7.00;4.95;;;;;;;18.94;71.35;100412.16;4972757;28;99494;-78
2023/09/02 04:47:16;;;;;;;7.60;4.93;;;;;;;18.83;71.10;100403.19;4972435;28;99688;-78
2023/09/02 04:49:42;;;;;;;9.73;5.35;;;;;;;18.98;71.15;100426.94;4972624;28;97186;-78
2023/09/02 04:52:09;;;;;;;8.07;5.78;;;;;;;19.07;71.02;100425.47;4972463;28;98630;-78
2023/09/02 04:54:34;;;;;;;7.85;5.00;;;;;;;19.12;70.86;100426.03;4974163;28;96772;-78
2023/09/02 04:57:00;;;;;;;6.93;4.88;;;;;;;19.24;70.58;100427.00;4973345;28;98380;-78
2023/09/02 04:59:26;;;;;;;6.10;5.10;;;;;;;19.32;70.38;100426.47;4972907;28;96904;-78
2023/09/02 05:01:52;;;;;;;8.30;4.57;;;;;;;19.23;70.38;100436.78;4969937;28;97535;-78
2023/09/02 05:04:17;;;;;;;9.02;5.05;;;;;;;19.35;70.27;100432.44;4973774;28;98792;-78
2023/09/02 05:06:43;;;;;;;7.35;5.10;;;;;;;19.30;70.32;100439.03;4964173;28;100499;-78
2023/09/02 05:09:08;;;;;;;11.98;5.00;;;;;;;19.46;70.04;100437.03;4972645;28;97099;-78
2023/09/02 05:11:34;;;;;;;4.47;4.07;;;;;;;19.41;70.09;100441.81;4972961;28;96962;-78
2023/09/02 05:13:59;;;;;;;6.45;4.05;;;;;;;19.43;69.93;100439.88;4973372;28;98009;-78
2023/09/02 05:16:25;;;;;;;7.97;4.78;;;;;;;19.47;69.75;100449.38;4971947;28;100012;-78
2023/09/02 05:18:52;;;;;;;6.75;4.70;;;;;;;19.49;69.60;100442.13;4972223;28;96709;-78
2023/09/02 05:21:17;;;;;;;8.75;5.13;;;;;;;19.53;69.67;100435.63;4971288;28;98591;-78
2023/09/02 05:23:45;;;;;;;5.10;4.60;;;;;;;19.22;70.52;100450.19;4966756;28;100837;-78
2023/09/02 05:26:11;;;;;;;6.78;5.15;;;;;;;18.95;71.58;100444.94;4965905;28;100300;-78
2023/09/02 05:28:37;;;;;;;9.48;4.65;;;;;;;19.11;71.07;100450.06;4960883;28;97956;-78
2023/09/02 05:31:02;;;;;;;8.20;4.57;;;;;;;19.53;70.25;100450.75;4962688;28;97595;-78
2023/09/02 05:33:28;;;;;;;8.18;4.30;;;;;;;20.00;69.08;100447.44;4972190;28;98809;-79
2023/09/02 05:35:54;;;;;;;10.02;4.50;;;;;;;20.19;68.53;100452.31;4972633;28;98490;-78
2023/09/02 05:38:19;;;;;;;5.50;3.95;;;;;;;20.47;67.54;100455.63;4971023;28;96766;-78
2023/09/02 05:40:45;;;;;;;5.65;3.60;;;;;;;20.81;66.60;100462.03;4961796;28;97119;-78
2023/09/02 05:43:11;;;;;;;7.03;4.38;;;;;;;21.01;66.12;100465.88;4966787;28;97761;-78
2023/09/02 05:45:36;;;;;;;5.22;4.32;;;;;;;21.00;65.99;100454.34;4969671;28;98335;-78
2023/09/02 05:48:02;;;;;;;10.38;4.05;;;;;;;20.95;65.54;100469.84;4971916;28;96714;-79
2023/09/02 05:50:27;;;;;;;5.43;3.80;;;;;;;20.78;66.01;100468.44;4972240;28;97930;-78
2023/09/02 05:52:53;;;;;;;7.25;4.10;;;;;;;20.82;66.06;100473.53;4966779;28;98612;-79
2023/09/02 05:55:18;;;;;;;5.07;3.60;;;;;;;21.06;65.30;100482.38;4969828;28;98595;-79
2023/09/02 05:57:44;;;;;;;7.50;3.67;;;;;;;21.08;65.76;100491.09;4972735;28;97263;-79
2023/09/02 06:00:11;;;;;;;5.38;4.25;;;;;;;21.16;65.44;100479.88;4972999;28;96834;-79
2023/09/02 06:02:40;;;;;;;5.97;3.83;;;;;;;21.39;65.04;100487.00;4971904;28;98828;-78
2023/09/02 06:05:05;;;;;;;6.05;3.53;;;;;;;21.50;64.74;100488.84;4972942;28;98880;-79
2023/09/02 06:07:31;;;;;;;6.65;3.75;;;;;;;21.84;64.07;100478.19;4961875;28;96885;-78
2023/09/02 06:09:56;;;;;;;4.90;3.58;;;;;;;21.86;63.86;100479.78;4960708;28;96855;-73
2023/09/02 06:12:22;;;;;;;5.25;3.47;;;;;;;21.82;63.91;100472.13;4970882;28;98667;-73
2023/09/02 06:14:48;;;;;;;4.45;3.22;;;;;;;21.67;63.93;100482.19;4963982;28;98221;-73
2023/09/02 06:17:13;;;;;;;12.32;3.53;;;;;;;21.51;63.93;100481.69;4967677;28;96725;-73
2023/09/02 06:19:39;;;;;;;5.72;3.80;;;;;;;21.38;64.47;100487.97;4973349;28;96913;-73
2023/09/02 06:22:04;;;;;;;4.57;3.70;;;;;;;21.34;64.53;100485.63;4964594;28;98683;-72
2023/09/02 06:24:30;;;;;;;4.60;4.18;;;;;;;21.30;64.82;100484.16;4972341;28;98470;-73
2023/09/02 06:27:03;;;;;;;5.60;3.65;;;;;;;21.25;65.11;100492.50;4967393;28;97061;-72
2023/09/02 06:29:28;;;;;;;8.13;4.47;;;;;;;21.15;65.40;100500.38;4972626;28;96940;-72
2023/09/02 06:31:54;;;;;;;6.82;3.78;;;;;;;21.25;65.09;100498.69;4971532;28;97671;-73
2023/09/02 06:34:22;;;;;;;6.22;4.20;;;;;;;21.31;64.72;100505.38;4972274;28;98322;-72
2023/09/02 06:36:48;;;;;;;5.07;3.72;;;;;;;21.44;64.64;100498.19;4971992;28;97040;-73
2023/09/02 06:39:13;;;;;;;8.68;4.60;;;;;;;21.53;64.41;100501.13;4968555;28;96994;-74
2023/09/02 06:41:38;;;;;;;6.05;3.80;;;;;;;21.62;63.96;100495.06;4963873;28;98709;-73
2023/09/02 06:44:04;;;;;;;7.60;4.20;;;;;;;21.87;63.51;100502.84;4968928;28;98634;-74
2023/09/02 06:46:33;;;;;;;5.72;4.05;;;;;;;24.10;58.20;100506.72;4967112;28;97374;-74
2023/09/02 06:48:59;;;;;;;7.25;5.22;;;;;;;27.86;49.68;100500.38;4963272;28;97166;-76
2023/09/02 06:51:25;;;;;;;3.90;3.00;;;;;;;29.99;44.99;100504.31;4966973;28;98725;-75
2023/09/02 06:53:50;;;;;;;7.13;3.35;;;;;;;30.08;43.89;100502.41;4972045;28;97253;-74
2023/09/02 06:56:16;;;;;;;6.05;3.50;;;;;;;32.06;40.99;100498.09;4972386;28;97217;-75
2023/09/02 06:58:43;;;;;;;6.35;3.78;;;;;;;33.48;38.02;100498.41;4972118;28;97266;-75
2023/09/02 07:01:21;;;;;;;3.58;2.90;;;;;;;34.25;36.73;100510.25;4970820;28;98611;-75
2023/09/02 07:03:47;;;;;;;5.65;3.33;;;;;;;35.48;35.02;100502.75;4971771;28;98661;-76
2023/09/02 07:06:15;;;;;;;4.13;2.97;;;;;;;36.32;33.34;100514.78;4972012;28;96944;-76
2023/09/02 07:08:44;;;;;;;4.35;2.60;;;;;;;37.11;32.14;100512.72;4972315;28;96854;-76
2023/09/02 07:11:11;;;;;;;3.13;2.63;;;;;;;37.50;30.81;100511.59;4971448;28;98752;-75
2023/09/02 07:13:37;;;;;;;5.55;2.58;;;;;;;38.06;30.34;100517.97;4970009;28;98482;-75
2023/09/02 07:16:03;;;;;;;2.83;2.13;;;;;;;38.29;30.31;100520.03;4961977;28;96669;-74
2023/09/02 07:18:29;;;;;;;2.92;2.60;;;;;;;39.35;28.96;100513.03;4969983;28;97000;-75
2023/09/02 07:21:02;;;;;;;4.15;2.55;;;;;;;39.61;28.44;100514.47;4968775;28;98848;-73
2023/09/02 07:23:28;;;;;;;3.47;2.75;;;;;;;39.69;28.45;100517.94;4963024;28;98441;-75
2023/09/02 07:25:56;;;;;;;3.53;2.67;;;;;;;37.25;31.08;100521.66;4965981;28;97259;-78
2023/09/02 07:28:21;;;;;;;5.45;3.10;;;;;;;35.13;32.85;100516.59;4964955;28;96868;-77
2023/09/02 07:30:47;;;;;;;3.92;2.70;;;;;;;33.58;35.26;100522.59;4964839;28;98842;-80
2023/09/02 07:33:12;;;;;;;2.38;2.17;;;;;;;32.10;37.50;100525.72;4957374;28;98096;-74
2023/09/02 07:35:39;;;;;;;2.13;1.92;;;;;;;31.23;38.73;100524.28;4959684;28;96752;-76
2023/09/02 07:38:05;;;;;;;2.90;2.53;;;;;;;33.32;35.82;100524.00;4967967;28;97456;-74
2023/09/02 07:40:31;;;;;;;3.92;2.55;;;;;;;35.46;33.54;100525.84;4959303;28;98881;-75
2023/09/02 07:42:59;;;;;;;5.60;2.33;;;;;;;33.80;34.83;100531.50;4962827;28;98011;-75
2023/09/02 07:45:25;;;;;;;4.10;2.88;;;;;;;35.07;33.63;100530.25;4960801;28;98254;-73
2023/09/02 07:47:50;;;;;;;3.53;2.67;;;;;;;36.43;32.22;100530.50;4969585;28;98133;-73
2023/09/02 07:50:16;;;;;;;3.55;2.40;;;;;;;38.35;29.16;100537.44;4969044;28;97367;-78
2023/09/02 07:52:41;;;;;;;3.50;2.15;;;;;;;38.87;28.32;100540.59;4969788;28;98401;-77
2023/09/02 07:55:07;;;;;;;3.38;2.50;;;;;;;40.09;27.26;100525.44;4971241;28;97790;-77
2023/09/02 07:57:33;;;;;;;5.07;2.30;;;;;;;38.82;28.53;100535.78;4971787;28;96862;-76
2023/09/02 07:59:59;;;;;;;4.13;2.40;;;;;;;40.40;26.78;100533.28;4967884;28;99223;-77
2023/09/02 08:02:25;;;;;;;7.80;3.17;;;;;;;41.54;25.70;100537.00;4969442;28;98847;-77
2023/09/02 08:04:51;;;;;;;3.50;2.10;;;;;;;40.12;26.68;100536.81;4964979;28;96701;-77
2023/09/02 08:07:16;;;;;;;4.00;2.55;;;;;;;40.48;26.11;100540.31;4968760;28;96836;-77
2023/09/02 08:09:42;;;;;;;5.47;2.20;;;;;;;40.99;25.74;100541.31;4970149;28;98448;-76
2023/09/02 08:12:08;;;;;;;4.63;1.90;;;;;;;39.98;26.77;100547.22;4972863;28;98394;-77
2023/09/02 08:14:33;;;;;;;3.80;2.10;;;;;;;38.24;28.61;100548.09;4974692;28;96739;-76
2023/09/02 08:16:59;;;;;;;6.53;3.17;;;;;;;37.06;29.76;100548.09;4975573;28;96878;-76
2023/09/02 08:19:24;;;;;;;2.80;2.10;;;;;;;35.24;31.85;100545.16;4974778;28;98904;-77
2023/09/02 08:21:50;;;;;;;5.57;2.55;;;;;;;34.18;34.10;100545.63;4975219;28;98666;-76
2023/09/02 08:24:15;;;;;;;5.47;2.80;;;;;;;33.30;35.32;100557.88;4975179;28;96635;-77
2023/09/02 08:26:41;;;;;;;5.40;2.85;;;;;;;34.74;33.76;100558.25;4974711;28;98431;-77
2023/09/02 08:29:07;;;;;;;5.28;3.10;;;;;;;37.49;30.29;100558.31;4973333;28;99688;-77
2023/09/02 08:31:33;;;;;;;7.30;2.20;;;;;;;39.31;28.00;100553.03;4974762;28;98716;-77
2023/09/02 08:33:58;;;;;;;3.17;1.92;;;;;;;40.76;26.12;100568.91;4974986;28;96813;-77
2023/09/02 08:36:24;;;;;;;4.13;1.80;;;;;;;42.04;24.92;100560.94;4975548;28;96969;-77
2023/09/02 08:38:52;;;;;;;8.50;7.85;;;;;;;42.87;23.79;100564.44;4974513;28;98656;-77
2023/09/02 08:41:26;;;;;;;5.13;1.95;;;;;;;40.98;25.15;100563.56;4974118;28;98417;-77
2023/09/02 08:43:54;;;;;;;2.67;1.80;;;;;;;42.35;23.79;100558.59;4961947;28;96574;-78
2023/09/02 08:46:20;;;;;;;;;;;;;;;43.75;22.49;100561.34;4975912;28;97117;-77
2023/09/02 08:48:47;;;;;;;2.45;1.73;;;;;;;44.88;21.57;100554.38;4973043;28;99122;-77
2023/09/02 08:51:12;;;;;;;2.42;1.80;;;;;;;45.71;20.76;100555.25;4974559;28;98511;-77
2023/09/02 08:53:38;;;;;;;3.05;1.42;;;;;;;45.37;20.98;100564.97;4973066;28;97480;-77
2023/09/02 08:56:07;;;;;;;2.28;1.45;;;;;;;42.79;22.96;100569.59;4975049;28;96822;-77
2023/09/02 08:58:34;;;;;;;2.72;1.40;;;;;;;40.50;25.21;100582.16;4972939;28;99142;-77
2023/09/02 09:01:00;;;;;;;2.38;1.40;;;;;;;39.85;25.86;100574.94;4974149;28;98286;-77
2023/09/02 09:03:26;;;;;;;2.50;1.40;;;;;;;37.99;27.55;100580.22;4974686;28;96791;-77
2023/09/02 09:05:52;;;;;;;6.90;1.92;;;;;;;36.59;28.99;100581.13;4973275;28;97308;-77
2023/09/02 09:08:18;;;;;;;8.00;1.73;;;;;;;38.26;27.49;100583.53;4973069;28;98796;-77
2023/09/02 09:10:44;;;;;;;3.00;1.65;;;;;;;40.61;25.33;100572.19;4973880;28;98397;-77
2023/09/02 09:13:13;;;;;;;5.60;2.47;;;;;;;42.28;23.63;100584.41;4974732;28;96784;-77
2023/09/02 09:15:39;;;;;;;6.18;5.60;;;;;;;43.18;23.03;100564.78;4974410;28;96931;-76
2023/09/02 09:18:04;;;;;;;3.03;1.60;;;;;;;42.98;22.57;100593.00;4972545;28;99055;-77
2023/09/02 09:20:31;;;;;;;2.35;1.92;;;;;;;41.78;24.26;100579.81;4973181;28;98733;-77
2023/09/02 09:22:56;;;;;;;3.67;1.35;;;;;;;41.35;24.23;100597.84;4972394;28;97706;-76
2023/09/02 09:25:22;;;;;;;3.83;1.55;;;;;;;39.77;25.26;100598.13;4973715;28;96885;-77
2023/09/02 09:27:49;;;;;;;5.47;5.10;;;;;;;41.02;24.44;100595.84;4974092;28;98861;-77
2023/09/02 09:30:27;;;;;;;7.43;5.30;;;;;;;40.19;24.80;100587.00;4969468;28;98360;-77
2023/09/02 09:32:58;;;;;;;2.28;1.40;;;;;;;40.60;24.25;100592.53;4974592;28;97857;-77
2023/09/02 09:35:24;;;;;;;9.15;8.63;;;;;;;41.09;24.06;100588.28;4973022;28;96874;-77
2023/09/02 09:37:56;;;;;;;1.70;1.27;;;;;;;39.47;25.96;100600.06;4973982;28;98883;-77
2023/09/02 09:40:32;;;;;;;7.43;6.82;;;;;;;38.08;26.95;100595.31;4972880;28;98726;-77
2023/09/02 09:42:59;;;;;;;6.50;5.90;;;;;;;37.17;27.82;100600.19;4973673;28;96895;-77
2023/09/02 09:45:25;;;;;;;1.52;1.10;;;;;;;36.30;29.49;100601.59;4973963;28;97178;-76
2023/09/02 09:47:51;;;;;;;2.05;1.25;;;;;;;35.32;30.50;100604.97;4973586;28;98791;-76
2023/09/02 09:50:18;;;;;;;3.90;1.38;;;;;;;34.54;31.42;100603.63;4973056;28;97718;-77
2023/09/02 09:53:01;;;;;;;5.75;2.03;;;;;;;33.75;32.80;100621.09;4973973;28;97312;-76
2023/09/02 09:55:28;;;;;;;2.90;1.38;;;;;;;33.15;33.88;100625.94;4972326;28;96970;-77
2023/09/02 09:57:57;;;;;;;6.28;1.85;;;;;;;32.72;34.64;100624.97;4973639;28;99039;-77
2023/09/02 10:00:23;;;;;;;2.92;1.50;;;;;;;32.16;35.39;100620.81;4975198;28;98471;-76
2023/09/02 10:02:53;;;;;;;4.45;1.60;;;;;;;31.84;36.34;100624.69;4977153;28;96789;-77
2023/09/02 10:05:29;;;;;;;2.95;1.27;;;;;;;31.54;36.88;100623.75;4973673;28;96908;-76
2023/09/02 10:07:58;;;;;;;5.47;2.08;;;;;;;31.35;37.38;100625.91;4972934;28;98890;-76
2023/09/02 10:10:32;;;;;;;2.53;1.45;;;;;;;31.24;37.18;100631.75;4972389;28;98717;-78
2023/09/02 10:12:58;;;;;;;4.28;1.40;;;;;;;31.20;37.17;100618.72;4961651;28;96843;-78
2023/09/02 10:15:26;;;;;;;2.95;1.55;;;;;;;31.12;38.02;100617.72;4973378;28;96918;-79
2023/09/02 10:17:54;;;;;;;3.72;1.38;;;;;;;30.98;38.14;100626.66;4961011;28;98727;-78
2023/09/02 10:20:20;;;;;;;3.58;1.20;;;;;;;31.05;38.70;100622.19;4972409;28;98291;-78
2023/09/02 10:22:47;;;;;;;3.58;1.23;;;;;;;31.28;37.89;100624.94;4972268;28;96808;-79
2023/09/02 10:25:13;;;;;;;2.38;1.65;;;;;;;31.31;38.55;100629.16;4972408;28;97457;-78
2023/09/02 10:27:43;;;;;;;2.85;1.30;;;;;;;31.22;38.30;100624.81;4972899;28;99079;-78
2023/09/02 10:30:19;;;;;;;2.33;1.23;;;;;;;31.14;37.77;100625.69;4972285;28;98917;-78
2023/09/02 10:33:17;;;;;;;1.42;1.30;;;;;;;30.90;37.85;100630.22;4972971;28;96763;-78
2023/09/02 10:35:44;;;;;;;1.40;1.15;;;;;;;30.97;37.78;100643.06;4970177;28;97092;-78
2023/09/02 10:38:11;;;;;;;2.25;1.20;;;;;;;31.03;38.17;100636.94;4955607;28;98789;-79
2023/09/02 10:40:41;;;;;;;2.95;1.27;;;;;;;30.96;37.98;100647.66;4970693;28;98355;-78
2023/09/02 10:43:07;;;;;;;1.65;1.20;;;;;;;30.85;37.72;100640.75;4971891;28;97015;-78
2023/09/02 10:45:32;;;;;;;1.30;1.00;;;;;;;30.74;37.99;100656.53;4961979;28;96970;-79
2023/09/02 10:47:59;;;;;;;2.22;1.40;;;;;;;30.70;38.10;100658.75;4971656;28;98755;-79
2023/09/02 10:50:24;;;;;;;3.75;1.58;;;;;;;30.73;37.81;100663.81;4971388;28;98152;-78
2023/09/02 10:52:50;;;;;;;2.08;1.40;;;;;;;30.72;37.70;100658.56;4971960;28;96864;-78
2023/09/02 10:55:16;;;;;;;1.73;1.10;;;;;;;30.57;37.87;100645.72;4972814;28;96872;-79
2023/09/02 10:57:45;;;;;;;2.25;1.40;;;;;;;30.62;38.05;100648.78;4972442;28;98851;-78
2023/09/02 11:00:19;;;;;;;3.22;2.03;;;;;;;30.49;38.89;100653.06;4972156;28;98818;-78
2023/09/02 11:02:46;;;;;;;2.35;1.70;;;;;;;30.32;38.65;100647.69;4975879;28;97295;-78
2023/09/02 11:05:12;;;;;;;1.98;1.83;;;;;;;30.12;39.17;100651.75;4972892;28;96951;-78
2023/09/02 11:07:40;;;;;;;2.17;1.45;;;;;;;30.06;39.54;100647.03;4969402;28;98674;-78
2023/09/02 11:10:07;;;;;;;2.30;2.10;;;;;;;30.00;39.57;100648.56;4971955;28;98610;-79
2023/09/02 11:12:36;;;;;;;2.13;1.85;;;;;;;29.97;39.29;100638.06;4972465;28;96675;-79
2023/09/02 11:15:11;;;;;;;3.50;1.50;;;;;;;29.82;39.17;100645.16;4972967;28;96942;-78
2023/09/02 11:17:43;;;;;;;4.18;1.60;;;;;;;29.78;39.05;100645.50;4971272;28;98936;-79
2023/09/02 11:20:10;;;;;;;4.97;1.92;;;;;;;29.76;39.03;100652.13;4972069;28;98367;-79
2023/09/02 11:22:53;;;;;;;1.92;1.70;;;;;;;29.61;39.51;100653.75;4972323;28;96739;-79